sensor_id;sensor_type;location;lat;lon;timestamp;P1;durP1;ratioP1;P2;durP2;ratioP2
64907;SDS011;69061;52.236;5.188;2024-03-25T00:02:11;42.72;;;9.40;;
64907;SDS011;69061;52.236;5.188;2024-03-25T00:04:37;34.80;;;7.07;;
64907;SDS011;69061;52.236;5.188;2024-03-25T00:07:03;27.75;;;7.57;;
64907;SDS011;69061;52.236;5.188;2024-03-25T00:09:30;40.08;;;8.23;;
64907;SDS011;69061;52.236;5.188;2024-03-25T00:11:57;28.40;;;7.40;;
64907;SDS011;69061;52.236;5.188;2024-03-25T00:14:24;34.33;;;7.65;;
64907;SDS011;69061;52.236;5.188;2024-03-25T00:16:51;27.88;;;7.18;;
64907;SDS011;69061;52.236;5.188;2024-03-25T00:19:17;41.10;;;7.63;;
64907;SDS011;69061;52.236;5.188;2024-03-25T00:21:44;32.25;;;8.05;;
64907;SDS011;69061;52.236;5.188;2024-03-25T00:24:11;30.75;;;6.40;;
64907;SDS011;69061;52.236;5.188;2024-03-25T00:26:40;31.70;;;7.15;;
64907;SDS011;69061;52.236;5.188;2024-03-25T00:29:06;32.53;;;7.32;;
64907;SDS011;69061;52.236;5.188;2024-03-25T00:31:33;56.28;;;11.75;;
64907;SDS011;69061;52.236;5.188;2024-03-25T00:33:58;36.08;;;7.82;;
64907;SDS011;69061;52.236;5.188;2024-03-25T00:36:26;37.33;;;8.57;;
64907;SDS011;69061;52.236;5.188;2024-03-25T00:38:51;39.15;;;8.82;;
64907;SDS011;69061;52.236;5.188;2024-03-25T00:41:18;44.72;;;8.20;;
64907;SDS011;69061;52.236;5.188;2024-03-25T00:43:45;34.53;;;9.45;;
64907;SDS011;69061;52.236;5.188;2024-03-25T00:46:11;37.75;;;6.78;;
64907;SDS011;69061;52.236;5.188;2024-03-25T00:48:37;35.85;;;7.93;;
64907;SDS011;69061;52.236;5.188;2024-03-25T00:51:04;28.08;;;6.78;;
64907;SDS011;69061;52.236;5.188;2024-03-25T00:53:30;30.02;;;8.05;;
64907;SDS011;69061;52.236;5.188;2024-03-25T00:55:57;34.75;;;8.43;;
64907;SDS011;69061;52.236;5.188;2024-03-25T00:58:22;27.27;;;7.50;;
64907;SDS011;69061;52.236;5.188;2024-03-25T01:00:50;39.15;;;8.45;;
64907;SDS011;69061;52.236;5.188;2024-03-25T01:03:16;36.45;;;6.50;;
64907;SDS011;69061;52.236;5.188;2024-03-25T01:05:43;42.72;;;7.82;;
64907;SDS011;69061;52.236;5.188;2024-03-25T01:08:08;35.70;;;6.47;;
64907;SDS011;69061;52.236;5.188;2024-03-25T01:10:37;39.08;;;9.15;;
64907;SDS011;69061;52.236;5.188;2024-03-25T01:13:02;39.55;;;8.50;;
64907;SDS011;69061;52.236;5.188;2024-03-25T01:15:30;30.42;;;6.70;;
64907;SDS011;69061;52.236;5.188;2024-03-25T01:17:57;21.48;;;5.72;;
64907;SDS011;69061;52.236;5.188;2024-03-25T01:20:23;32.38;;;8.38;;
64907;SDS011;69061;52.236;5.188;2024-03-25T01:22:49;36.22;;;7.43;;
64907;SDS011;69061;52.236;5.188;2024-03-25T01:25:17;40.15;;;8.30;;
64907;SDS011;69061;52.236;5.188;2024-03-25T01:27:44;35.65;;;7.40;;
64907;SDS011;69061;52.236;5.188;2024-03-25T01:30:11;30.00;;;7.72;;
64907;SDS011;69061;52.236;5.188;2024-03-25T01:32:37;31.15;;;7.53;;
64907;SDS011;69061;52.236;5.188;2024-03-25T01:35:08;29.70;;;6.78;;
64907;SDS011;69061;52.236;5.188;2024-03-25T01:37:33;30.10;;;6.97;;
64907;SDS011;69061;52.236;5.188;2024-03-25T01:40:00;27.42;;;6.10;;
64907;SDS011;69061;52.236;5.188;2024-03-25T01:42:25;29.80;;;7.40;;
64907;SDS011;69061;52.236;5.188;2024-03-25T01:44:53;23.17;;;7.18;;
64907;SDS011;69061;52.236;5.188;2024-03-25T01:47:19;48.83;;;8.93;;
64907;SDS011;69061;52.236;5.188;2024-03-25T01:49:46;35.70;;;7.38;;
64907;SDS011;69061;52.236;5.188;2024-03-25T01:52:13;22.55;;;5.22;;
64907;SDS011;69061;52.236;5.188;2024-03-25T01:54:40;31.90;;;7.13;;
64907;SDS011;69061;52.236;5.188;2024-03-25T01:57:06;28.40;;;6.50;;
64907;SDS011;69061;52.236;5.188;2024-03-25T01:59:33;39.00;;;6.97;;
64907;SDS011;69061;52.236;5.188;2024-03-25T02:01:59;38.55;;;7.60;;
64907;SDS011;69061;52.236;5.188;2024-03-25T02:04:27;23.85;;;6.50;;
64907;SDS011;69061;52.236;5.188;2024-03-25T02:06:52;28.58;;;6.78;;
64907;SDS011;69061;52.236;5.188;2024-03-25T02:09:22;31.45;;;6.93;;
64907;SDS011;69061;52.236;5.188;2024-03-25T02:11:49;28.77;;;6.18;;
64907;SDS011;69061;52.236;5.188;2024-03-25T02:14:17;34.75;;;7.10;;
64907;SDS011;69061;52.236;5.188;2024-03-25T02:16:44;43.80;;;8.52;;
64907;SDS011;69061;52.236;5.188;2024-03-25T02:19:12;34.45;;;7.45;;
64907;SDS011;69061;52.236;5.188;2024-03-25T02:21:39;43.33;;;6.68;;
64907;SDS011;69061;52.236;5.188;2024-03-25T02:24:05;32.17;;;8.10;;
64907;SDS011;69061;52.236;5.188;2024-03-25T02:26:36;36.40;;;6.43;;
64907;SDS011;69061;52.236;5.188;2024-03-25T02:29:04;34.42;;;8.18;;
64907;SDS011;69061;52.236;5.188;2024-03-25T02:31:30;32.50;;;6.88;;
64907;SDS011;69061;52.236;5.188;2024-03-25T02:33:57;33.33;;;7.63;;
64907;SDS011;69061;52.236;5.188;2024-03-25T02:36:23;21.17;;;6.60;;
64907;SDS011;69061;52.236;5.188;2024-03-25T02:38:49;28.95;;;6.97;;
64907;SDS011;69061;52.236;5.188;2024-03-25T02:41:15;31.05;;;7.03;;
64907;SDS011;69061;52.236;5.188;2024-03-25T02:43:43;31.20;;;7.43;;
64907;SDS011;69061;52.236;5.188;2024-03-25T02:46:10;33.08;;;8.02;;
64907;SDS011;69061;52.236;5.188;2024-03-25T02:48:37;37.92;;;8.80;;
64907;SDS011;69061;52.236;5.188;2024-03-25T02:51:03;32.25;;;6.43;;
64907;SDS011;69061;52.236;5.188;2024-03-25T02:53:29;39.05;;;9.32;;
64907;SDS011;69061;52.236;5.188;2024-03-25T02:55:55;22.92;;;5.78;;
64907;SDS011;69061;52.236;5.188;2024-03-25T02:58:22;26.83;;;7.15;;
64907;SDS011;69061;52.236;5.188;2024-03-25T03:00:49;33.00;;;7.47;;
64907;SDS011;69061;52.236;5.188;2024-03-25T03:03:16;27.55;;;6.88;;
64907;SDS011;69061;52.236;5.188;2024-03-25T03:05:41;26.05;;;6.00;;
64907;SDS011;69061;52.236;5.188;2024-03-25T03:08:08;23.65;;;8.15;;
64907;SDS011;69061;52.236;5.188;2024-03-25T03:10:34;27.52;;;7.30;;
64907;SDS011;69061;52.236;5.188;2024-03-25T03:13:00;28.77;;;7.15;;
64907;SDS011;69061;52.236;5.188;2024-03-25T03:15:26;25.65;;;6.95;;
64907;SDS011;69061;52.236;5.188;2024-03-25T03:17:54;41.67;;;9.00;;
64907;SDS011;69061;52.236;5.188;2024-03-25T03:20:20;29.65;;;6.50;;
64907;SDS011;69061;52.236;5.188;2024-03-25T03:22:47;25.00;;;5.65;;
64907;SDS011;69061;52.236;5.188;2024-03-25T03:25:12;28.60;;;6.53;;
64907;SDS011;69061;52.236;5.188;2024-03-25T03:27:41;30.75;;;6.40;;
64907;SDS011;69061;52.236;5.188;2024-03-25T03:30:08;37.60;;;8.75;;
64907;SDS011;69061;52.236;5.188;2024-03-25T03:32:35;24.90;;;8.57;;
64907;SDS011;69061;52.236;5.188;2024-03-25T03:35:02;30.70;;;8.00;;
64907;SDS011;69061;52.236;5.188;2024-03-25T03:37:29;29.63;;;7.78;;
64907;SDS011;69061;52.236;5.188;2024-03-25T03:39:55;23.13;;;7.25;;
64907;SDS011;69061;52.236;5.188;2024-03-25T03:42:22;22.83;;;8.15;;
64907;SDS011;69061;52.236;5.188;2024-03-25T03:44:48;29.73;;;6.35;;
64907;SDS011;69061;52.236;5.188;2024-03-25T03:47:14;23.83;;;7.25;;
64907;SDS011;69061;52.236;5.188;2024-03-25T03:49:40;27.65;;;6.43;;
64907;SDS011;69061;52.236;5.188;2024-03-25T03:52:08;24.52;;;6.50;;
64907;SDS011;69061;52.236;5.188;2024-03-25T03:54:35;27.75;;;6.45;;
64907;SDS011;69061;52.236;5.188;2024-03-25T03:57:02;23.50;;;7.07;;
64907;SDS011;69061;52.236;5.188;2024-03-25T03:59:27;25.13;;;6.07;;
64907;SDS011;69061;52.236;5.188;2024-03-25T04:01:54;23.85;;;7.05;;
64907;SDS011;69061;52.236;5.188;2024-03-25T04:04:20;34.13;;;7.35;;
64907;SDS011;69061;52.236;5.188;2024-03-25T04:06:47;37.38;;;9.02;;
64907;SDS011;69061;52.236;5.188;2024-03-25T04:09:14;25.05;;;7.47;;
64907;SDS011;69061;52.236;5.188;2024-03-25T04:11:41;20.83;;;5.53;;
64907;SDS011;69061;52.236;5.188;2024-03-25T04:14:06;25.85;;;6.70;;
64907;SDS011;69061;52.236;5.188;2024-03-25T04:16:33;24.27;;;7.57;;
64907;SDS011;69061;52.236;5.188;2024-03-25T04:18:59;21.67;;;6.50;;
64907;SDS011;69061;52.236;5.188;2024-03-25T04:21:26;27.55;;;8.02;;
64907;SDS011;69061;52.236;5.188;2024-03-25T04:23:52;26.73;;;9.10;;
64907;SDS011;69061;52.236;5.188;2024-03-25T04:26:20;22.23;;;7.45;;
64907;SDS011;69061;52.236;5.188;2024-03-25T04:28:46;26.08;;;7.15;;
64907;SDS011;69061;52.236;5.188;2024-03-25T04:31:12;27.95;;;7.57;;
64907;SDS011;69061;52.236;5.188;2024-03-25T04:33:38;21.75;;;5.82;;
64907;SDS011;69061;52.236;5.188;2024-03-25T04:36:06;25.23;;;6.93;;
64907;SDS011;69061;52.236;5.188;2024-03-25T04:38:32;23.20;;;6.80;;
64907;SDS011;69061;52.236;5.188;2024-03-25T04:40:58;24.75;;;7.68;;
64907;SDS011;69061;52.236;5.188;2024-03-25T04:43:27;33.13;;;7.70;;
64907;SDS011;69061;52.236;5.188;2024-03-25T04:45:54;34.53;;;7.38;;
64907;SDS011;69061;52.236;5.188;2024-03-25T04:48:19;28.58;;;7.20;;
64907;SDS011;69061;52.236;5.188;2024-03-25T04:50:45;38.55;;;7.10;;
64907;SDS011;69061;52.236;5.188;2024-03-25T04:53:11;27.52;;;8.52;;
64907;SDS011;69061;52.236;5.188;2024-03-25T04:55:37;26.10;;;6.80;;
64907;SDS011;69061;52.236;5.188;2024-03-25T04:58:03;25.95;;;8.30;;
64907;SDS011;69061;52.236;5.188;2024-03-25T05:00:33;19.83;;;6.05;;
64907;SDS011;69061;52.236;5.188;2024-03-25T05:02:59;27.17;;;7.55;;
64907;SDS011;69061;52.236;5.188;2024-03-25T05:05:25;18.02;;;6.20;;
64907;SDS011;69061;52.236;5.188;2024-03-25T05:07:51;32.13;;;7.65;;
64907;SDS011;69061;52.236;5.188;2024-03-25T05:10:17;32.13;;;7.20;;
64907;SDS011;69061;52.236;5.188;2024-03-25T05:12:43;31.45;;;8.52;;
64907;SDS011;69061;52.236;5.188;2024-03-25T05:15:09;23.25;;;6.50;;
64907;SDS011;69061;52.236;5.188;2024-03-25T05:17:36;26.20;;;7.10;;
64907;SDS011;69061;52.236;5.188;2024-03-25T05:20:02;22.35;;;6.35;;
64907;SDS011;69061;52.236;5.188;2024-03-25T05:22:29;31.90;;;6.90;;
64907;SDS011;69061;52.236;5.188;2024-03-25T05:24:55;31.85;;;8.90;;
64907;SDS011;69061;52.236;5.188;2024-03-25T05:27:21;25.23;;;7.50;;
64907;SDS011;69061;52.236;5.188;2024-03-25T05:29:50;29.13;;;9.20;;
64907;SDS011;69061;52.236;5.188;2024-03-25T05:32:16;19.13;;;7.22;;
64907;SDS011;69061;52.236;5.188;2024-03-25T05:34:43;33.03;;;7.80;;
64907;SDS011;69061;52.236;5.188;2024-03-25T05:37:08;25.45;;;8.48;;
64907;SDS011;69061;52.236;5.188;2024-03-25T05:39:34;29.20;;;8.20;;
64907;SDS011;69061;52.236;5.188;2024-03-25T05:42:00;28.73;;;8.43;;
64907;SDS011;69061;52.236;5.188;2024-03-25T05:44:26;26.55;;;8.75;;
64907;SDS011;69061;52.236;5.188;2024-03-25T05:46:52;32.03;;;10.15;;
64907;SDS011;69061;52.236;5.188;2024-03-25T05:49:18;29.83;;;9.23;;
64907;SDS011;69061;52.236;5.188;2024-03-25T05:51:45;33.45;;;10.15;;
64907;SDS011;69061;52.236;5.188;2024-03-25T05:54:11;30.20;;;9.20;;
64907;SDS011;69061;52.236;5.188;2024-03-25T05:56:37;30.20;;;9.07;;
64907;SDS011;69061;52.236;5.188;2024-03-25T05:59:03;22.85;;;7.70;;
64907;SDS011;69061;52.236;5.188;2024-03-25T06:01:29;30.38;;;10.15;;
64907;SDS011;69061;52.236;5.188;2024-03-25T06:03:55;25.55;;;9.25;;
64907;SDS011;69061;52.236;5.188;2024-03-25T06:06:21;38.42;;;11.05;;
64907;SDS011;69061;52.236;5.188;2024-03-25T06:08:49;31.13;;;8.98;;
64907;SDS011;69061;52.236;5.188;2024-03-25T06:11:14;35.33;;;10.68;;
64907;SDS011;69061;52.236;5.188;2024-03-25T06:13:40;28.17;;;8.20;;
64907;SDS011;69061;52.236;5.188;2024-03-25T06:16:06;31.98;;;7.82;;
64907;SDS011;69061;52.236;5.188;2024-03-25T06:18:32;26.48;;;9.02;;
64907;SDS011;69061;52.236;5.188;2024-03-25T06:20:59;35.83;;;9.48;;
64907;SDS011;69061;52.236;5.188;2024-03-25T06:23:25;32.70;;;8.63;;
64907;SDS011;69061;52.236;5.188;2024-03-25T06:25:54;38.90;;;10.57;;
64907;SDS011;69061;52.236;5.188;2024-03-25T06:28:21;33.78;;;10.15;;
64907;SDS011;69061;52.236;5.188;2024-03-25T06:30:47;30.02;;;12.32;;
64907;SDS011;69061;52.236;5.188;2024-03-25T06:33:31;42.72;;;12.45;;
64907;SDS011;69061;52.236;5.188;2024-03-25T06:36:16;41.92;;;12.02;;
64907;SDS011;69061;52.236;5.188;2024-03-25T06:38:42;39.67;;;13.63;;
64907;SDS011;69061;52.236;5.188;2024-03-25T06:41:10;45.45;;;11.23;;
64907;SDS011;69061;52.236;5.188;2024-03-25T06:43:36;31.77;;;9.68;;
64907;SDS011;69061;52.236;5.188;2024-03-25T06:46:04;35.88;;;9.43;;
64907;SDS011;69061;52.236;5.188;2024-03-25T06:48:29;27.80;;;9.93;;
64907;SDS011;69061;52.236;5.188;2024-03-25T06:50:55;38.88;;;11.93;;
64907;SDS011;69061;52.236;5.188;2024-03-25T06:53:22;44.08;;;11.30;;
64907;SDS011;69061;52.236;5.188;2024-03-25T06:55:52;31.02;;;8.55;;
64907;SDS011;69061;52.236;5.188;2024-03-25T06:58:21;31.67;;;10.82;;
64907;SDS011;69061;52.236;5.188;2024-03-25T07:00:49;32.47;;;10.23;;
64907;SDS011;69061;52.236;5.188;2024-03-25T07:03:16;31.25;;;11.43;;
64907;SDS011;69061;52.236;5.188;2024-03-25T07:05:44;29.83;;;9.93;;
64907;SDS011;69061;52.236;5.188;2024-03-25T07:08:12;37.80;;;11.90;;
64907;SDS011;69061;52.236;5.188;2024-03-25T07:10:38;30.95;;;9.15;;
64907;SDS011;69061;52.236;5.188;2024-03-25T07:13:04;26.88;;;10.43;;
64907;SDS011;69061;52.236;5.188;2024-03-25T07:15:32;25.95;;;9.93;;
64907;SDS011;69061;52.236;5.188;2024-03-25T07:17:57;45.42;;;11.45;;
64907;SDS011;69061;52.236;5.188;2024-03-25T07:20:23;43.58;;;10.93;;
64907;SDS011;69061;52.236;5.188;2024-03-25T07:22:49;30.17;;;11.63;;
64907;SDS011;69061;52.236;5.188;2024-03-25T07:25:15;31.00;;;8.98;;
64907;SDS011;69061;52.236;5.188;2024-03-25T07:27:43;41.13;;;10.50;;
64907;SDS011;69061;52.236;5.188;2024-03-25T07:30:09;34.20;;;9.30;;
64907;SDS011;69061;52.236;5.188;2024-03-25T07:32:36;30.27;;;9.02;;
64907;SDS011;69061;52.236;5.188;2024-03-25T07:35:02;33.17;;;9.38;;
64907;SDS011;69061;52.236;5.188;2024-03-25T07:37:29;34.13;;;10.32;;
64907;SDS011;69061;52.236;5.188;2024-03-25T07:39:56;36.78;;;10.10;;
64907;SDS011;69061;52.236;5.188;2024-03-25T07:42:22;30.33;;;10.32;;
64907;SDS011;69061;52.236;5.188;2024-03-25T07:44:48;31.88;;;8.90;;
64907;SDS011;69061;52.236;5.188;2024-03-25T07:47:14;38.88;;;10.43;;
64907;SDS011;69061;52.236;5.188;2024-03-25T07:49:41;38.40;;;10.55;;
64907;SDS011;69061;52.236;5.188;2024-03-25T07:52:07;40.63;;;11.55;;
64907;SDS011;69061;52.236;5.188;2024-03-25T07:54:34;35.33;;;11.27;;
64907;SDS011;69061;52.236;5.188;2024-03-25T07:57:00;34.53;;;9.68;;
64907;SDS011;69061;52.236;5.188;2024-03-25T07:59:26;41.30;;;10.93;;
64907;SDS011;69061;52.236;5.188;2024-03-25T08:01:52;37.88;;;9.80;;
64907;SDS011;69061;52.236;5.188;2024-03-25T08:04:18;34.17;;;9.05;;
64907;SDS011;69061;52.236;5.188;2024-03-25T08:06:46;32.13;;;10.43;;
64907;SDS011;69061;52.236;5.188;2024-03-25T08:09:11;39.22;;;10.20;;
64907;SDS011;69061;52.236;5.188;2024-03-25T08:11:38;33.00;;;9.00;;
64907;SDS011;69061;52.236;5.188;2024-03-25T08:14:04;37.65;;;9.02;;
64907;SDS011;69061;52.236;5.188;2024-03-25T08:16:31;33.35;;;10.40;;
64907;SDS011;69061;52.236;5.188;2024-03-25T08:18:56;32.90;;;10.02;;
64907;SDS011;69061;52.236;5.188;2024-03-25T08:21:22;27.85;;;9.02;;
64907;SDS011;69061;52.236;5.188;2024-03-25T08:23:49;35.38;;;9.27;;
64907;SDS011;69061;52.236;5.188;2024-03-25T08:26:15;35.22;;;9.45;;
64907;SDS011;69061;52.236;5.188;2024-03-25T08:28:42;34.25;;;9.43;;
64907;SDS011;69061;52.236;5.188;2024-03-25T08:31:08;52.78;;;10.98;;
64907;SDS011;69061;52.236;5.188;2024-03-25T08:33:34;26.75;;;9.95;;
64907;SDS011;69061;52.236;5.188;2024-03-25T08:36:00;33.03;;;8.63;;
64907;SDS011;69061;52.236;5.188;2024-03-25T08:38:25;38.42;;;8.55;;
64907;SDS011;69061;52.236;5.188;2024-03-25T08:40:53;40.00;;;9.15;;
64907;SDS011;69061;52.236;5.188;2024-03-25T08:43:19;39.28;;;9.93;;
64907;SDS011;69061;52.236;5.188;2024-03-25T08:45:44;39.38;;;9.20;;
64907;SDS011;69061;52.236;5.188;2024-03-25T08:48:10;31.95;;;9.02;;
64907;SDS011;69061;52.236;5.188;2024-03-25T08:50:36;27.77;;;8.88;;
64907;SDS011;69061;52.236;5.188;2024-03-25T08:53:02;44.63;;;9.27;;
64907;SDS011;69061;52.236;5.188;2024-03-25T08:55:28;27.67;;;6.88;;
64907;SDS011;69061;52.236;5.188;2024-03-25T08:57:55;39.72;;;8.93;;
64907;SDS011;69061;52.236;5.188;2024-03-25T09:00:21;34.60;;;7.00;;
64907;SDS011;69061;52.236;5.188;2024-03-25T09:02:47;27.10;;;7.55;;
64907;SDS011;69061;52.236;5.188;2024-03-25T09:05:13;32.28;;;6.63;;
64907;SDS011;69061;52.236;5.188;2024-03-25T09:07:39;29.48;;;6.88;;
64907;SDS011;69061;52.236;5.188;2024-03-25T09:10:05;32.95;;;8.25;;
64907;SDS011;69061;52.236;5.188;2024-03-25T09:12:49;28.67;;;8.32;;
64907;SDS011;69061;52.236;5.188;2024-03-25T09:15:17;22.27;;;6.45;;
64907;SDS011;69061;52.236;5.188;2024-03-25T09:17:43;28.38;;;7.07;;
64907;SDS011;69061;52.236;5.188;2024-03-25T09:20:09;34.25;;;6.85;;
64907;SDS011;69061;52.236;5.188;2024-03-25T09:22:35;31.52;;;7.00;;
64907;SDS011;69061;52.236;5.188;2024-03-25T09:25:02;30.92;;;6.47;;
64907;SDS011;69061;52.236;5.188;2024-03-25T09:27:29;40.75;;;10.27;;
64907;SDS011;69061;52.236;5.188;2024-03-25T09:29:54;33.92;;;7.22;;
64907;SDS011;69061;52.236;5.188;2024-03-25T09:32:22;37.95;;;7.50;;
64907;SDS011;69061;52.236;5.188;2024-03-25T09:34:48;24.20;;;6.47;;
64907;SDS011;69061;52.236;5.188;2024-03-25T09:37:14;39.88;;;9.32;;
64907;SDS011;69061;52.236;5.188;2024-03-25T09:39:40;37.10;;;8.32;;
64907;SDS011;69061;52.236;5.188;2024-03-25T09:42:07;35.78;;;8.95;;
64907;SDS011;69061;52.236;5.188;2024-03-25T09:44:34;28.88;;;9.43;;
64907;SDS011;69061;52.236;5.188;2024-03-25T09:47:00;36.95;;;8.65;;
64907;SDS011;69061;52.236;5.188;2024-03-25T09:49:28;30.88;;;9.57;;
64907;SDS011;69061;52.236;5.188;2024-03-25T09:51:55;29.60;;;8.02;;
64907;SDS011;69061;52.236;5.188;2024-03-25T09:54:21;35.70;;;8.68;;
64907;SDS011;69061;52.236;5.188;2024-03-25T09:56:47;32.90;;;7.85;;
64907;SDS011;69061;52.236;5.188;2024-03-25T09:59:15;30.10;;;7.65;;
64907;SDS011;69061;52.236;5.188;2024-03-25T10:01:41;28.75;;;11.50;;
64907;SDS011;69061;52.236;5.188;2024-03-25T10:04:07;34.30;;;9.60;;
64907;SDS011;69061;52.236;5.188;2024-03-25T10:06:35;27.63;;;8.20;;
64907;SDS011;69061;52.236;5.188;2024-03-25T10:09:04;32.88;;;7.47;;
64907;SDS011;69061;52.236;5.188;2024-03-25T10:11:30;38.70;;;7.82;;
64907;SDS011;69061;52.236;5.188;2024-03-25T10:13:57;28.15;;;7.53;;
64907;SDS011;69061;52.236;5.188;2024-03-25T10:16:23;24.40;;;6.53;;
64907;SDS011;69061;52.236;5.188;2024-03-25T10:18:48;28.48;;;7.18;;
64907;SDS011;69061;52.236;5.188;2024-03-25T10:21:14;25.60;;;8.00;;
64907;SDS011;69061;52.236;5.188;2024-03-25T10:23:46;26.08;;;6.88;;
64907;SDS011;69061;52.236;5.188;2024-03-25T10:26:24;25.80;;;6.88;;
64907;SDS011;69061;52.236;5.188;2024-03-25T10:28:57;41.47;;;8.20;;
64907;SDS011;69061;52.236;5.188;2024-03-25T10:31:24;26.98;;;7.57;;
64907;SDS011;69061;52.236;5.188;2024-03-25T10:33:50;25.88;;;7.88;;
64907;SDS011;69061;52.236;5.188;2024-03-25T10:36:16;23.77;;;7.35;;
64907;SDS011;69061;52.236;5.188;2024-03-25T10:38:43;30.92;;;7.78;;
64907;SDS011;69061;52.236;5.188;2024-03-25T10:41:11;55.50;;;11.20;;
64907;SDS011;69061;52.236;5.188;2024-03-25T10:43:39;29.10;;;7.47;;
64907;SDS011;69061;52.236;5.188;2024-03-25T10:46:08;27.48;;;8.02;;
64907;SDS011;69061;52.236;5.188;2024-03-25T10:48:35;29.52;;;7.65;;
64907;SDS011;69061;52.236;5.188;2024-03-25T10:51:07;30.35;;;8.57;;
64907;SDS011;69061;52.236;5.188;2024-03-25T10:53:34;32.80;;;8.02;;
64907;SDS011;69061;52.236;5.188;2024-03-25T10:56:04;27.20;;;7.45;;
64907;SDS011;69061;52.236;5.188;2024-03-25T10:58:31;32.55;;;7.97;;
64907;SDS011;69061;52.236;5.188;2024-03-25T11:00:59;28.42;;;9.10;;
64907;SDS011;69061;52.236;5.188;2024-03-25T11:03:26;20.73;;;7.03;;
64907;SDS011;69061;52.236;5.188;2024-03-25T11:05:54;26.13;;;8.13;;
64907;SDS011;69061;52.236;5.188;2024-03-25T11:08:21;28.17;;;7.53;;
64907;SDS011;69061;52.236;5.188;2024-03-25T11:10:56;24.90;;;7.30;;
64907;SDS011;69061;52.236;5.188;2024-03-25T11:13:26;28.20;;;7.75;;
64907;SDS011;69061;52.236;5.188;2024-03-25T11:15:53;26.85;;;8.25;;
64907;SDS011;69061;52.236;5.188;2024-03-25T11:18:22;33.13;;;8.35;;
64907;SDS011;69061;52.236;5.188;2024-03-25T11:20:59;20.85;;;7.78;;
64907;SDS011;69061;52.236;5.188;2024-03-25T11:23:26;22.95;;;7.93;;
64907;SDS011;69061;52.236;5.188;2024-03-25T11:25:54;20.80;;;8.20;;
64907;SDS011;69061;52.236;5.188;2024-03-25T11:28:27;30.08;;;8.98;;
64907;SDS011;69061;52.236;5.188;2024-03-25T11:30:54;20.17;;;8.20;;
64907;SDS011;69061;52.236;5.188;2024-03-25T11:33:20;24.95;;;7.85;;
64907;SDS011;69061;52.236;5.188;2024-03-25T11:35:48;26.58;;;8.95;;
64907;SDS011;69061;52.236;5.188;2024-03-25T11:38:14;17.10;;;6.50;;
64907;SDS011;69061;52.236;5.188;2024-03-25T11:40:41;24.10;;;8.85;;
64907;SDS011;69061;52.236;5.188;2024-03-25T11:43:09;20.42;;;8.63;;
64907;SDS011;69061;52.236;5.188;2024-03-25T11:45:37;18.13;;;7.75;;
64907;SDS011;69061;52.236;5.188;2024-03-25T11:48:03;19.17;;;7.72;;
64907;SDS011;69061;52.236;5.188;2024-03-25T11:50:29;18.48;;;7.70;;
64907;SDS011;69061;52.236;5.188;2024-03-25T11:53:00;18.05;;;8.35;;
64907;SDS011;69061;52.236;5.188;2024-03-25T11:55:29;19.02;;;8.60;;
64907;SDS011;69061;52.236;5.188;2024-03-25T11:57:55;25.77;;;9.50;;
64907;SDS011;69061;52.236;5.188;2024-03-25T12:00:21;19.45;;;8.18;;
64907;SDS011;69061;52.236;5.188;2024-03-25T12:02:51;21.85;;;8.38;;
64907;SDS011;69061;52.236;5.188;2024-03-25T12:05:18;19.52;;;9.00;;
64907;SDS011;69061;52.236;5.188;2024-03-25T12:07:44;19.52;;;8.93;;
64907;SDS011;69061;52.236;5.188;2024-03-25T12:10:12;14.13;;;6.72;;
64907;SDS011;69061;52.236;5.188;2024-03-25T12:12:56;16.42;;;8.07;;
64907;SDS011;69061;52.236;5.188;2024-03-25T12:15:22;26.83;;;9.32;;
64907;SDS011;69061;52.236;5.188;2024-03-25T12:17:48;19.10;;;8.90;;
64907;SDS011;69061;52.236;5.188;2024-03-25T12:20:16;20.00;;;9.77;;
64907;SDS011;69061;52.236;5.188;2024-03-25T12:22:42;20.10;;;10.60;;
64907;SDS011;69061;52.236;5.188;2024-03-25T12:25:09;23.25;;;10.50;;
64907;SDS011;69061;52.236;5.188;2024-03-25T12:27:36;24.75;;;9.63;;
64907;SDS011;69061;52.236;5.188;2024-03-25T12:30:03;19.95;;;10.73;;
64907;SDS011;69061;52.236;5.188;2024-03-25T12:32:31;25.08;;;10.63;;
64907;SDS011;69061;52.236;5.188;2024-03-25T12:35:02;18.73;;;9.30;;
64907;SDS011;69061;52.236;5.188;2024-03-25T12:37:31;27.38;;;10.38;;
64907;SDS011;69061;52.236;5.188;2024-03-25T12:39:57;28.23;;;11.48;;
64907;SDS011;69061;52.236;5.188;2024-03-25T12:42:23;24.33;;;11.52;;
64907;SDS011;69061;52.236;5.188;2024-03-25T12:44:52;17.67;;;9.75;;
64907;SDS011;69061;52.236;5.188;2024-03-25T12:47:19;22.15;;;11.38;;
64907;SDS011;69061;52.236;5.188;2024-03-25T12:49:45;20.17;;;9.77;;
64907;SDS011;69061;52.236;5.188;2024-03-25T12:52:12;25.08;;;10.23;;
64907;SDS011;69061;52.236;5.188;2024-03-25T12:54:38;21.85;;;10.30;;
64907;SDS011;69061;52.236;5.188;2024-03-25T12:57:05;20.15;;;10.35;;
64907;SDS011;69061;52.236;5.188;2024-03-25T12:59:30;17.52;;;9.25;;
64907;SDS011;69061;52.236;5.188;2024-03-25T13:01:56;17.77;;;9.05;;
64907;SDS011;69061;52.236;5.188;2024-03-25T13:04:23;20.55;;;8.55;;
64907;SDS011;69061;52.236;5.188;2024-03-25T13:06:49;16.05;;;8.63;;
64907;SDS011;69061;52.236;5.188;2024-03-25T13:09:17;22.58;;;10.18;;
64907;SDS011;69061;52.236;5.188;2024-03-25T13:11:42;14.98;;;9.25;;
64907;SDS011;69061;52.236;5.188;2024-03-25T13:14:11;18.70;;;9.15;;
64907;SDS011;69061;52.236;5.188;2024-03-25T13:16:39;26.33;;;8.98;;
64907;SDS011;69061;52.236;5.188;2024-03-25T13:19:06;28.20;;;10.20;;
64907;SDS011;69061;52.236;5.188;2024-03-25T13:21:32;17.27;;;9.02;;
64907;SDS011;69061;52.236;5.188;2024-03-25T13:23:58;16.30;;;7.95;;
64907;SDS011;69061;52.236;5.188;2024-03-25T13:26:26;14.38;;;8.43;;
64907;SDS011;69061;52.236;5.188;2024-03-25T13:28:52;27.85;;;10.60;;
64907;SDS011;69061;52.236;5.188;2024-03-25T13:31:18;16.35;;;7.53;;
64907;SDS011;69061;52.236;5.188;2024-03-25T13:33:44;16.52;;;7.75;;
64907;SDS011;69061;52.236;5.188;2024-03-25T13:36:12;16.45;;;7.85;;
64907;SDS011;69061;52.236;5.188;2024-03-25T13:38:38;18.98;;;7.78;;
64907;SDS011;69061;52.236;5.188;2024-03-25T13:41:04;18.80;;;7.20;;
64907;SDS011;69061;52.236;5.188;2024-03-25T13:43:32;13.98;;;7.63;;
64907;SDS011;69061;52.236;5.188;2024-03-25T13:45:58;15.60;;;7.03;;
64907;SDS011;69061;52.236;5.188;2024-03-25T13:48:24;15.85;;;6.50;;
64907;SDS011;69061;52.236;5.188;2024-03-25T13:50:53;15.77;;;7.10;;
64907;SDS011;69061;52.236;5.188;2024-03-25T13:53:19;16.35;;;6.88;;
64907;SDS011;69061;52.236;5.188;2024-03-25T13:55:45;18.02;;;6.95;;
64907;SDS011;69061;52.236;5.188;2024-03-25T13:58:11;18.60;;;6.25;;
64907;SDS011;69061;52.236;5.188;2024-03-25T14:00:39;19.33;;;6.72;;
64907;SDS011;69061;52.236;5.188;2024-03-25T14:03:06;11.43;;;5.38;;
64907;SDS011;69061;52.236;5.188;2024-03-25T14:05:32;21.48;;;7.63;;
64907;SDS011;69061;52.236;5.188;2024-03-25T14:07:58;18.55;;;6.82;;
64907;SDS011;69061;52.236;5.188;2024-03-25T14:10:24;17.75;;;7.22;;
64907;SDS011;69061;52.236;5.188;2024-03-25T14:12:50;19.77;;;7.03;;
64907;SDS011;69061;52.236;5.188;2024-03-25T14:15:16;12.60;;;5.95;;
64907;SDS011;69061;52.236;5.188;2024-03-25T14:17:43;19.33;;;7.22;;
64907;SDS011;69061;52.236;5.188;2024-03-25T14:20:09;13.75;;;6.03;;
64907;SDS011;69061;52.236;5.188;2024-03-25T14:22:36;17.40;;;6.38;;
64907;SDS011;69061;52.236;5.188;2024-03-25T14:25:02;12.90;;;6.30;;
64907;SDS011;69061;52.236;5.188;2024-03-25T14:27:28;16.10;;;6.90;;
64907;SDS011;69061;52.236;5.188;2024-03-25T14:29:55;13.32;;;6.78;;
64907;SDS011;69061;52.236;5.188;2024-03-25T14:32:22;15.35;;;6.57;;